createdAt,value
2023-06-09T00:00:45.755Z,14.66
2023-06-09T00:01:45.786Z,14.66
2023-06-09T00:02:45.850Z,14.61
2023-06-09T00:03:45.869Z,14.59
2023-06-09T00:04:45.760Z,14.60
2023-06-09T00:05:45.681Z,14.49
2023-06-09T00:06:45.700Z,14.44
2023-06-09T00:07:45.662Z,14.30
2023-06-09T00:08:45.679Z,14.23
2023-06-09T00:09:45.682Z,14.24
2023-06-09T00:10:45.675Z,14.30
2023-06-09T00:11:45.622Z,14.42
2023-06-09T00:12:45.638Z,14.49
2023-06-09T00:13:45.642Z,14.53
2023-06-09T00:14:45.615Z,14.49
2023-06-09T00:15:45.595Z,14.48
2023-06-09T00:16:45.624Z,14.48
2023-06-09T00:17:45.612Z,14.48
2023-06-09T00:18:45.598Z,14.48
2023-06-09T00:19:45.543Z,14.46
2023-06-09T00:20:45.542Z,14.44
2023-06-09T00:21:45.566Z,14.39
2023-06-09T00:22:45.533Z,14.39
2023-06-09T00:23:45.616Z,14.35
2023-06-09T00:24:45.514Z,14.34
2023-06-09T00:25:45.480Z,14.30
2023-06-09T00:26:45.492Z,14.29
2023-06-09T00:27:45.483Z,14.29
2023-06-09T00:28:45.467Z,14.29
2023-06-09T00:29:45.428Z,14.30
2023-06-09T00:30:45.444Z,14.30
2023-06-09T00:31:45.444Z,14.27
2023-06-09T00:32:45.438Z,14.26
2023-06-09T00:33:45.400Z,14.27
2023-06-09T00:34:45.393Z,14.30
2023-06-09T00:35:45.366Z,14.34
2023-06-09T00:36:45.402Z,14.36
2023-06-09T00:37:45.342Z,14.35
2023-06-09T00:38:45.378Z,14.36
2023-06-09T00:39:45.324Z,14.35
2023-06-09T00:40:45.335Z,14.34
2023-06-09T00:41:45.296Z,14.30
2023-06-09T00:42:45.331Z,14.27
2023-06-09T00:43:45.281Z,14.21
2023-06-09T00:44:45.331Z,14.19
2023-06-09T00:45:45.263Z,14.13
2023-06-09T00:46:45.354Z,14.11
2023-06-09T00:47:45.238Z,14.08
2023-06-09T00:48:45.249Z,14.04
2023-06-09T00:49:45.227Z,14.05
2023-06-09T00:50:45.224Z,14.04
2023-06-09T00:51:45.206Z,14.04
2023-06-09T00:52:45.220Z,14.04
2023-06-09T00:53:45.178Z,14.06
2023-06-09T00:54:45.188Z,14.08
2023-06-09T00:55:45.150Z,14.09
2023-06-09T00:56:45.170Z,14.09
2023-06-09T00:57:45.129Z,14.11
2023-06-09T00:58:45.150Z,14.11
2023-06-09T00:59:45.106Z,14.09
2023-06-09T01:00:45.155Z,14.08
2023-06-09T01:01:45.115Z,14.06
2023-06-09T01:02:45.265Z,14.05
2023-06-09T01:03:45.087Z,14.06
2023-06-09T01:04:45.079Z,14.06
2023-06-09T01:05:45.042Z,14.06
2023-06-09T01:06:45.072Z,14.06
2023-06-09T01:07:45.028Z,14.05
2023-06-09T01:08:45.035Z,14.04
2023-06-09T01:09:45.016Z,14.04
2023-06-09T01:10:45.029Z,14.05
2023-06-09T01:11:45.006Z,14.04
2023-06-09T01:12:44.989Z,14.05
2023-06-09T01:13:44.959Z,14.06
2023-06-09T01:14:45.008Z,14.04
2023-06-09T01:15:44.937Z,13.99
2023-06-09T01:16:45.052Z,13.98
2023-06-09T01:17:45.022Z,13.96
2023-06-09T01:18:44.924Z,13.91
2023-06-09T01:19:44.905Z,13.88
2023-06-09T01:20:44.914Z,13.91
2023-06-09T01:21:44.886Z,13.90
2023-06-09T01:22:44.922Z,13.84
2023-06-09T01:23:44.886Z,13.84
2023-06-09T01:24:44.925Z,13.86
2023-06-09T01:25:44.848Z,13.84
2023-06-09T01:26:44.844Z,13.87
2023-06-09T01:27:44.833Z,13.88
2023-06-09T01:28:44.900Z,13.90
2023-06-09T01:29:44.799Z,13.91
2023-06-09T01:30:44.811Z,13.90
2023-06-09T01:31:44.784Z,13.91
2023-06-09T01:32:44.928Z,13.87
2023-06-09T01:33:44.747Z,13.83
2023-06-09T01:34:44.761Z,13.84
2023-06-09T01:35:44.751Z,13.81
2023-06-09T01:36:44.738Z,13.81
2023-06-09T01:37:44.737Z,13.81
2023-06-09T01:38:44.711Z,13.81
2023-06-09T01:39:44.690Z,13.81
2023-06-09T01:40:44.696Z,13.80
2023-06-09T01:41:44.663Z,13.80
2023-06-09T01:42:44.715Z,13.80
2023-06-09T01:43:44.638Z,13.80
2023-06-09T01:44:44.657Z,13.79
2023-06-09T01:45:44.632Z,13.76
2023-06-09T01:46:44.670Z,13.76
2023-06-09T01:47:44.682Z,13.79
2023-06-09T01:48:44.614Z,13.79
2023-06-09T01:49:44.574Z,13.79
2023-06-09T01:50:44.590Z,13.76
2023-06-09T01:51:44.558Z,13.73
2023-06-09T01:52:44.589Z,13.69
2023-06-09T01:53:44.531Z,13.66
2023-06-09T01:54:44.554Z,13.66
2023-06-09T01:55:44.508Z,13.65
2023-06-09T01:56:44.517Z,13.57
2023-06-09T01:57:44.568Z,13.47
2023-06-09T01:58:44.529Z,13.36
2023-06-09T01:59:44.508Z,13.31
2023-06-09T02:00:44.479Z,13.27
2023-06-09T02:01:44.492Z,13.27
2023-06-09T02:02:44.502Z,13.25
2023-06-09T02:03:44.533Z,13.27
2023-06-09T02:04:44.431Z,13.29
2023-06-09T02:05:44.431Z,13.31
2023-06-09T02:06:44.426Z,13.32
2023-06-09T02:07:44.376Z,13.35
2023-06-09T02:08:44.417Z,13.36
2023-06-09T02:09:44.366Z,13.38
2023-06-09T02:10:44.367Z,13.41
2023-06-09T02:11:44.332Z,13.43
2023-06-09T02:12:44.365Z,13.43
2023-06-09T02:13:44.336Z,13.39
2023-06-09T02:14:44.364Z,13.41
2023-06-09T02:15:44.308Z,13.41
2023-06-09T02:16:44.392Z,13.39
2023-06-09T02:17:44.293Z,13.39
2023-06-09T02:18:44.301Z,13.35
2023-06-09T02:19:44.253Z,13.32
2023-06-09T02:20:44.259Z,13.32
2023-06-09T02:21:44.221Z,13.31
2023-06-09T02:22:44.268Z,13.35
2023-06-09T02:23:44.246Z,13.31
2023-06-09T02:24:44.221Z,13.31
2023-06-09T02:25:44.188Z,13.27
2023-06-09T02:26:44.198Z,13.25
2023-06-09T02:27:44.172Z,13.24
2023-06-09T02:28:44.195Z,13.28
2023-06-09T02:29:44.162Z,13.28
2023-06-09T02:30:44.172Z,13.27
2023-06-09T02:31:44.165Z,13.27
2023-06-09T02:32:44.165Z,13.24
2023-06-09T02:33:44.107Z,13.24
2023-06-09T02:34:44.108Z,13.21
2023-06-09T02:35:44.082Z,13.16
2023-06-09T02:36:44.090Z,13.14
2023-06-09T02:37:44.065Z,13.12
2023-06-09T02:38:44.095Z,13.14
2023-06-09T02:39:44.039Z,13.14
2023-06-09T02:40:44.047Z,13.14
2023-06-09T02:41:44.009Z,13.10
2023-06-09T02:42:44.032Z,13.10
2023-06-09T02:43:44.013Z,13.06
2023-06-09T02:44:43.997Z,12.99
2023-06-09T02:45:44.010Z,12.98
2023-06-09T02:46:43.997Z,12.91
2023-06-09T02:47:43.970Z,12.85
2023-06-09T02:48:43.966Z,12.80
2023-06-09T02:49:43.934Z,12.74
2023-06-09T02:50:43.937Z,12.70
2023-06-09T02:51:43.899Z,12.67
2023-06-09T02:52:43.948Z,12.66
2023-06-09T02:53:43.903Z,12.63
2023-06-09T02:54:43.892Z,12.63
2023-06-09T02:55:43.870Z,12.67
2023-06-09T02:56:43.874Z,12.66
2023-06-09T02:57:43.839Z,12.66
2023-06-09T02:58:43.864Z,12.63
2023-06-09T02:59:43.816Z,12.63
2023-06-09T03:00:43.827Z,12.61
2023-06-09T03:01:43.912Z,12.56
2023-06-09T03:02:43.856Z,12.58
2023-06-09T03:03:43.807Z,12.56
2023-06-09T03:04:43.792Z,12.56
2023-06-09T03:05:43.759Z,12.56
2023-06-09T03:06:43.768Z,12.55
2023-06-09T03:07:43.730Z,12.54
2023-06-09T03:08:43.778Z,12.52
2023-06-09T03:09:43.720Z,12.54
2023-06-09T03:10:43.772Z,12.51
2023-06-09T03:11:43.711Z,12.46
2023-06-09T03:12:43.674Z,12.41
2023-06-09T03:13:43.735Z,12.36
2023-06-09T03:14:43.661Z,12.30
2023-06-09T03:15:43.688Z,12.22
2023-06-09T03:16:43.660Z,12.18
2023-06-09T03:17:43.671Z,12.18
2023-06-09T03:18:43.652Z,12.15
2023-06-09T03:19:43.645Z,12.11
2023-06-09T03:20:43.600Z,12.07
2023-06-09T03:21:43.610Z,12.04
2023-06-09T03:22:43.576Z,12.01
2023-06-09T03:23:43.637Z,12.00
2023-06-09T03:24:43.580Z,12.00
2023-06-09T03:25:43.568Z,12.00
2023-06-09T03:26:43.543Z,12.01
2023-06-09T03:27:43.541Z,12.01
2023-06-09T03:28:43.506Z,12.05
2023-06-09T03:29:43.523Z,12.05
2023-06-09T03:30:43.503Z,12.11
2023-06-09T03:31:43.581Z,12.12
2023-06-09T03:32:43.484Z,12.13
2023-06-09T03:33:43.496Z,12.16
2023-06-09T03:34:43.459Z,12.18
2023-06-09T03:35:43.469Z,12.19
2023-06-09T03:36:43.458Z,12.19
2023-06-09T03:37:43.432Z,12.21
2023-06-09T03:38:43.399Z,12.25
2023-06-09T03:39:43.402Z,12.25
2023-06-09T03:40:43.372Z,12.30
2023-06-09T03:41:43.413Z,12.36
2023-06-09T03:42:43.356Z,12.37
2023-06-09T03:43:43.362Z,12.36
2023-06-09T03:44:43.338Z,12.37
2023-06-09T03:45:43.350Z,12.40
2023-06-09T03:46:43.336Z,12.38
2023-06-09T03:47:43.370Z,12.40
2023-06-09T03:48:43.298Z,12.41
2023-06-09T03:49:43.325Z,12.40
2023-06-09T03:50:43.271Z,12.43
2023-06-09T03:51:43.308Z,12.43
2023-06-09T03:52:43.267Z,12.43
2023-06-09T03:53:43.262Z,12.38
2023-06-09T03:54:43.224Z,12.38
2023-06-09T03:55:43.238Z,12.36
2023-06-09T03:56:43.203Z,12.34
2023-06-09T03:57:43.292Z,12.36
2023-06-09T03:58:43.206Z,12.37
2023-06-09T03:59:43.193Z,12.36
2023-06-09T04:00:43.189Z,12.36
2023-06-09T04:01:43.196Z,12.37
2023-06-09T04:02:43.305Z,12.36
2023-06-09T04:03:43.193Z,12.41
2023-06-09T04:04:43.153Z,12.43
2023-06-09T04:05:43.131Z,12.43
2023-06-09T04:06:43.094Z,12.46
2023-06-09T04:07:43.112Z,12.46
2023-06-09T04:08:43.072Z,12.49
2023-06-09T04:09:43.099Z,12.52
2023-06-09T04:10:43.077Z,12.58
2023-06-09T04:11:43.043Z,12.59
2023-06-09T04:12:43.052Z,12.58
2023-06-09T04:13:43.036Z,12.61
2023-06-09T04:14:43.035Z,12.59
2023-06-09T04:15:43.038Z,12.62
2023-06-09T04:16:43.062Z,12.63
2023-06-09T04:17:43.040Z,12.66
2023-06-09T04:18:42.999Z,12.67
2023-06-09T04:19:42.962Z,12.67
2023-06-09T04:20:42.968Z,12.70
2023-06-09T04:21:42.960Z,12.70
2023-06-09T04:22:42.952Z,12.73
2023-06-09T04:23:42.914Z,12.77
2023-06-09T04:24:42.946Z,12.80
2023-06-09T04:25:42.914Z,12.84
2023-06-09T04:26:42.952Z,12.84
2023-06-09T04:27:42.892Z,12.85
2023-06-09T04:28:42.977Z,12.88
2023-06-09T04:29:42.860Z,12.89
2023-06-09T04:30:42.856Z,12.95
2023-06-09T04:31:42.873Z,12.98
2023-06-09T04:32:42.951Z,12.89
2023-06-09T04:33:42.810Z,12.89
2023-06-09T04:34:42.825Z,12.88
2023-06-09T04:35:42.788Z,12.84
2023-06-09T04:36:42.797Z,12.74
2023-06-09T04:37:42.757Z,12.73
2023-06-09T04:38:42.878Z,12.73
2023-06-09T04:39:42.740Z,12.74
2023-06-09T04:40:42.754Z,12.80
2023-06-09T04:41:42.738Z,12.87
2023-06-09T04:42:42.730Z,12.89
2023-06-09T04:43:42.716Z,12.92
2023-06-09T04:44:44.714Z,12.95
2023-06-09T04:45:42.699Z,12.98
2023-06-09T04:46:42.887Z,13.04
2023-06-09T04:47:42.685Z,13.07
2023-06-09T04:48:42.836Z,13.09
2023-06-09T04:49:42.658Z,13.13
2023-06-09T04:50:42.652Z,13.12
2023-06-09T04:51:42.625Z,13.13
2023-06-09T04:52:42.623Z,13.16
2023-06-09T04:53:42.591Z,13.17
2023-06-09T04:54:42.607Z,13.24
2023-06-09T04:55:42.588Z,13.24
2023-06-09T04:56:42.589Z,13.27
2023-06-09T04:57:42.541Z,13.43
2023-06-09T04:58:42.562Z,13.54
2023-06-09T04:59:42.534Z,13.65
2023-06-09T05:00:42.574Z,13.86
2023-06-09T05:01:42.539Z,14.01
2023-06-09T05:02:42.569Z,14.09
2023-06-09T05:03:42.496Z,14.20
2023-06-09T05:04:42.508Z,14.34
2023-06-09T05:05:42.459Z,14.45
2023-06-09T05:06:42.496Z,14.56
2023-06-09T05:07:42.433Z,14.71
2023-06-09T05:08:42.441Z,14.82
2023-06-09T05:09:42.418Z,14.93
2023-06-09T05:10:42.427Z,15.01
2023-06-09T05:11:42.407Z,15.04
2023-06-09T05:12:42.448Z,15.20
2023-06-09T05:13:42.364Z,15.30
2023-06-09T05:14:42.380Z,15.33
2023-06-09T05:15:42.370Z,15.38
2023-06-09T05:16:42.426Z,15.33
2023-06-09T05:17:42.372Z,15.40
2023-06-09T05:18:42.381Z,15.55
2023-06-09T05:19:44.303Z,15.66
2023-06-09T05:20:42.314Z,15.66
2023-06-09T05:21:42.291Z,15.71
2023-06-09T05:22:42.341Z,15.81
2023-06-09T05:23:42.359Z,15.98
2023-06-09T05:24:42.283Z,16.08
2023-06-09T05:25:42.272Z,16.10
2023-06-09T05:26:42.261Z,16.14
2023-06-09T05:27:42.228Z,16.16
2023-06-09T05:28:42.232Z,16.26
2023-06-09T05:29:42.222Z,16.32
2023-06-09T05:30:42.218Z,16.29
2023-06-09T05:31:42.210Z,16.32
2023-06-09T05:32:42.252Z,16.40
2023-06-09T05:33:42.172Z,16.45
2023-06-09T05:34:42.201Z,16.47
2023-06-09T05:35:42.190Z,16.48
2023-06-09T05:36:42.169Z,16.51
2023-06-09T05:37:42.110Z,16.50
2023-06-09T05:38:42.143Z,16.55
2023-06-09T05:39:42.107Z,16.63
2023-06-09T05:40:42.139Z,16.66
2023-06-09T05:41:42.075Z,16.77
2023-06-09T05:42:42.089Z,16.90
2023-06-09T05:43:42.052Z,17.05
2023-06-09T05:44:42.068Z,17.18
2023-06-09T05:45:42.080Z,17.25
2023-06-09T05:46:42.064Z,17.25
2023-06-09T05:47:42.022Z,17.33
2023-06-09T05:48:42.026Z,17.28
2023-06-09T05:49:41.988Z,17.45
2023-06-09T05:50:42.020Z,17.46
2023-06-09T05:51:41.970Z,17.46
2023-06-09T05:52:42.023Z,17.47
2023-06-09T05:53:41.951Z,17.60
2023-06-09T05:54:42.096Z,17.74
2023-06-09T05:55:41.936Z,17.77
2023-06-09T05:56:43.096Z,17.86
2023-06-09T05:57:41.935Z,17.94
2023-06-09T05:58:41.927Z,18.01
2023-06-09T05:59:41.890Z,18.11
2023-06-09T06:00:41.906Z,18.26
2023-06-09T06:01:41.911Z,18.19
2023-06-09T06:02:42.025Z,18.21
2023-06-09T06:03:41.985Z,18.20
2023-06-09T06:04:42.019Z,18.20
2023-06-09T06:05:41.842Z,18.25
2023-06-09T06:06:41.854Z,18.44
2023-06-09T06:07:41.803Z,18.60
2023-06-09T06:08:41.852Z,18.66
2023-06-09T06:09:41.826Z,18.65
2023-06-09T06:10:41.817Z,18.66
2023-06-09T06:11:41.775Z,18.66
2023-06-09T06:12:44.552Z,18.71
2023-06-09T06:13:41.756Z,18.71
2023-06-09T06:14:41.796Z,18.74
2023-06-09T06:15:41.782Z,18.59
2023-06-09T06:16:41.762Z,18.53
2023-06-09T06:17:41.723Z,18.60
2023-06-09T06:18:41.722Z,18.53
2023-06-09T06:19:41.694Z,18.56
2023-06-09T06:20:41.722Z,18.74
2023-06-09T06:21:41.659Z,18.76
2023-06-09T06:22:41.671Z,18.94
2023-06-09T06:23:41.668Z,19.15
2023-06-09T06:24:41.671Z,19.24
2023-06-09T06:25:41.614Z,19.15
2023-06-09T06:26:41.637Z,19.13
2023-06-09T06:27:41.588Z,19.21
2023-06-09T06:28:41.606Z,19.23
2023-06-09T06:29:41.573Z,19.24
2023-06-09T06:30:41.598Z,19.40
2023-06-09T06:31:41.653Z,19.38
2023-06-09T06:32:41.616Z,19.55
2023-06-09T06:33:41.535Z,19.80
2023-06-09T06:34:41.540Z,19.90
2023-06-09T06:35:41.550Z,19.97
2023-06-09T06:36:41.529Z,19.97
2023-06-09T06:37:41.518Z,19.97
2023-06-09T06:38:41.498Z,19.83
2023-06-09T06:39:41.461Z,19.98
2023-06-09T06:40:41.477Z,20.13
2023-06-09T06:41:41.459Z,20.16
2023-06-09T06:42:41.472Z,20.34
2023-06-09T06:43:41.439Z,20.53
2023-06-09T06:44:41.449Z,20.57
2023-06-09T06:45:41.405Z,20.61
2023-06-09T06:46:41.454Z,20.88
2023-06-09T06:47:41.403Z,21.00
2023-06-09T06:48:41.421Z,21.16
2023-06-09T06:49:41.360Z,21.13
2023-06-09T06:50:41.372Z,21.19
2023-06-09T06:51:41.332Z,21.42
2023-06-09T06:52:41.341Z,21.58
2023-06-09T06:53:41.313Z,21.58
2023-06-09T06:54:41.452Z,21.81
2023-06-09T06:55:41.288Z,21.66
2023-06-09T06:56:41.294Z,21.48
2023-06-09T06:57:41.291Z,21.43
2023-06-09T06:58:41.280Z,21.63
2023-06-09T06:59:41.236Z,21.93
2023-06-09T07:00:41.371Z,22.26
2023-06-09T07:01:41.224Z,22.08
2023-06-09T07:02:41.313Z,21.70
2023-06-09T07:03:41.384Z,21.67
2023-06-09T07:04:41.289Z,21.82
2023-06-09T07:05:41.258Z,22.06
2023-06-09T07:06:41.202Z,22.45
2023-06-09T07:07:41.230Z,22.70
2023-06-09T07:08:41.271Z,22.76
2023-06-09T07:09:41.229Z,22.88
2023-06-09T07:10:41.184Z,22.88
2023-06-09T07:11:41.134Z,22.99
2023-06-09T07:12:41.137Z,23.07
2023-06-09T07:13:41.096Z,23.07
2023-06-09T07:14:41.114Z,22.99
2023-06-09T07:15:41.097Z,23.16
2023-06-09T07:16:41.121Z,23.38
2023-06-09T07:17:41.126Z,23.39
2023-06-09T07:18:41.084Z,23.22
2023-06-09T07:19:41.028Z,23.18
2023-06-09T07:20:41.036Z,23.11
2023-06-09T07:21:41.006Z,23.04
2023-06-09T07:22:41.027Z,23.16
2023-06-09T07:23:41.143Z,23.29
2023-06-09T07:24:40.984Z,23.31
2023-06-09T07:25:40.961Z,23.31
2023-06-09T07:26:40.967Z,23.32
2023-06-09T07:27:40.949Z,23.34
2023-06-09T07:28:41.071Z,23.63
2023-06-09T07:29:40.929Z,23.94
2023-06-09T07:30:40.948Z,24.02
2023-06-09T07:31:40.936Z,24.11
2023-06-09T07:32:41.000Z,24.31
2023-06-09T07:33:40.873Z,24.44
2023-06-09T07:34:41.044Z,24.33
2023-06-09T07:35:40.989Z,24.30
2023-06-09T07:36:40.883Z,24.23
2023-06-09T07:37:40.850Z,23.94
2023-06-09T07:38:40.864Z,23.93
2023-06-09T07:39:40.816Z,23.97
2023-06-09T07:40:40.861Z,23.54
2023-06-09T07:41:40.792Z,23.44
2023-06-09T07:42:40.799Z,23.44
2023-06-09T07:43:40.780Z,23.68
2023-06-09T07:44:40.785Z,23.87
2023-06-09T07:45:40.742Z,23.99
2023-06-09T07:46:40.887Z,24.11
2023-06-09T07:47:40.780Z,24.18
2023-06-09T07:48:40.740Z,24.09
2023-06-09T07:49:40.709Z,23.92
2023-06-09T07:50:59.364Z,23.97
2023-06-09T07:51:40.687Z,24.15
2023-06-09T07:52:40.827Z,24.37
2023-06-09T07:53:40.666Z,24.53
2023-06-09T07:54:40.672Z,24.30
2023-06-09T07:55:40.672Z,23.93
2023-06-09T07:56:40.648Z,24.05
2023-06-09T07:57:40.645Z,24.23
2023-06-09T07:58:40.644Z,24.39
2023-06-09T07:59:40.600Z,24.79
2023-06-09T08:00:40.609Z,24.99
2023-06-09T08:01:40.594Z,25.04
2023-06-09T08:02:40.613Z,25.26
2023-06-09T08:03:40.654Z,25.49
2023-06-09T08:04:40.740Z,25.49
2023-06-09T08:05:40.529Z,25.34
2023-06-09T08:06:40.566Z,25.08
2023-06-09T08:07:40.523Z,24.94
2023-06-09T08:08:40.540Z,24.94
2023-06-09T08:09:40.516Z,25.02
2023-06-09T08:10:40.511Z,25.27
2023-06-09T08:11:40.484Z,25.45
2023-06-09T08:12:40.522Z,25.23
2023-06-09T08:13:40.469Z,25.16
2023-06-09T08:14:40.475Z,25.22
2023-06-09T08:15:40.450Z,25.30
2023-06-09T08:16:40.597Z,25.45
2023-06-09T08:17:40.499Z,25.20
2023-06-09T08:18:40.421Z,25.12
2023-06-09T08:19:40.403Z,24.92
2023-06-09T08:20:40.404Z,24.99
2023-06-09T08:21:40.403Z,25.01
2023-06-09T08:22:40.406Z,24.79
2023-06-09T08:23:40.351Z,24.49
2023-06-09T08:24:40.358Z,24.49
2023-06-09T08:25:42.481Z,24.74
2023-06-09T08:26:40.334Z,24.87
2023-06-09T08:27:40.352Z,25.27
2023-06-09T08:28:40.302Z,25.61
2023-06-09T08:29:40.303Z,25.63
2023-06-09T08:30:40.274Z,25.36
2023-06-09T08:31:40.441Z,25.30
2023-06-09T08:32:40.310Z,25.31
2023-06-09T08:33:40.259Z,25.44
2023-06-09T08:34:40.239Z,25.72
2023-06-09T08:35:40.235Z,25.76
2023-06-09T08:36:40.207Z,26.03
2023-06-09T08:37:40.251Z,26.24
2023-06-09T08:38:40.229Z,25.85
2023-06-09T08:39:41.631Z,25.59
2023-06-09T08:40:40.173Z,25.46
2023-06-09T08:41:40.187Z,25.42
2023-06-09T08:42:40.295Z,25.57
2023-06-09T08:43:40.174Z,25.83
2023-06-09T08:44:40.132Z,25.98
2023-06-09T08:45:40.167Z,26.12
2023-06-09T08:46:40.106Z,26.32
2023-06-09T08:47:40.166Z,26.54
2023-06-09T08:48:40.077Z,26.56
2023-06-09T08:49:40.132Z,26.46
2023-06-09T08:50:40.061Z,26.38
2023-06-09T08:51:40.076Z,26.24
2023-06-09T08:52:40.059Z,26.36
2023-06-09T08:53:40.056Z,26.54
2023-06-09T08:54:40.039Z,26.44
2023-06-09T08:55:40.043Z,26.34
2023-06-09T08:56:40.000Z,26.06
2023-06-09T08:57:42.453Z,26.00
2023-06-09T08:58:39.986Z,26.09
2023-06-09T08:59:39.987Z,25.81
2023-06-09T09:00:39.977Z,25.54
2023-06-09T09:01:40.075Z,25.42
2023-06-09T09:02:39.982Z,25.48
2023-06-09T09:03:40.014Z,25.56
2023-06-09T09:04:39.935Z,25.72
2023-06-09T09:05:39.938Z,25.89
2023-06-09T09:06:39.926Z,26.11
2023-06-09T09:07:39.927Z,26.13
2023-06-09T09:08:39.877Z,26.51
2023-06-09T09:09:39.878Z,26.96
2023-06-09T09:10:39.875Z,26.88
2023-06-09T09:11:39.889Z,26.79
2023-06-09T09:12:39.831Z,26.72
2023-06-09T09:13:39.877Z,26.83
2023-06-09T09:14:41.867Z,26.83
2023-06-09T09:15:39.824Z,26.72
2023-06-09T09:16:39.782Z,26.76
2023-06-09T09:17:39.839Z,26.69
2023-06-09T09:18:39.772Z,26.71
2023-06-09T09:19:39.780Z,26.79
2023-06-09T09:20:42.085Z,26.76
2023-06-09T09:21:39.762Z,26.76
2023-06-09T09:22:39.716Z,27.01
2023-06-09T09:23:39.783Z,27.03
2023-06-09T09:24:39.705Z,26.81
2023-06-09T09:25:39.760Z,27.05
2023-06-09T09:26:41.984Z,27.23
2023-06-09T09:27:39.690Z,27.30
2023-06-09T09:28:39.693Z,27.42
2023-06-09T09:29:39.691Z,27.35
2023-06-09T09:30:39.649Z,27.31
2023-06-09T09:31:39.682Z,27.43
2023-06-09T09:32:39.627Z,27.34
2023-06-09T09:33:39.632Z,27.31
2023-06-09T09:34:39.625Z,27.25
2023-06-09T09:35:39.608Z,27.30
2023-06-09T09:36:39.580Z,27.50
2023-06-09T09:37:39.586Z,27.46
2023-06-09T09:38:42.542Z,27.53
2023-06-09T09:39:39.602Z,27.77
2023-06-09T09:40:39.526Z,27.63
2023-06-09T09:41:39.541Z,27.35
2023-06-09T09:42:39.531Z,26.84
2023-06-09T09:43:39.525Z,26.83
2023-06-09T09:44:42.241Z,27.01
2023-06-09T09:45:39.550Z,27.16
2023-06-09T09:46:39.509Z,27.49
2023-06-09T09:47:39.553Z,27.40
2023-06-09T09:48:39.477Z,27.23
2023-06-09T09:49:39.478Z,27.24
2023-06-09T09:50:39.428Z,27.34
2023-06-09T09:51:39.463Z,27.48
2023-06-09T09:52:39.410Z,27.65
2023-06-09T09:53:39.427Z,27.72
2023-06-09T09:54:39.402Z,27.52
2023-06-09T09:55:39.398Z,27.24
2023-06-09T09:56:39.381Z,27.24
2023-06-09T09:57:39.405Z,27.25
2023-06-09T09:58:39.341Z,27.34
2023-06-09T09:59:39.358Z,27.49
2023-06-09T10:00:39.395Z,27.61
2023-06-09T10:01:39.340Z,27.53
2023-06-09T10:02:39.360Z,27.53
2023-06-09T10:03:39.412Z,27.81
2023-06-09T10:04:39.304Z,28.15
2023-06-09T10:05:39.293Z,28.35
2023-06-09T10:06:39.296Z,28.05
2023-06-09T10:07:39.297Z,27.93
2023-06-09T10:08:39.273Z,27.88
2023-06-09T10:09:39.255Z,27.96
2023-06-09T10:10:39.207Z,27.80
2023-06-09T10:11:39.219Z,27.61
2023-06-09T10:12:39.315Z,27.69
2023-06-09T10:13:39.214Z,27.69
2023-06-09T10:14:39.177Z,27.58
2023-06-09T10:15:39.209Z,27.77
2023-06-09T10:16:39.200Z,28.08
2023-06-09T10:17:39.256Z,28.20
2023-06-09T10:18:39.978Z,28.14
2023-06-09T10:19:39.231Z,28.09
2023-06-09T10:20:39.131Z,28.17
2023-06-09T10:21:39.123Z,28.13
2023-06-09T10:22:39.126Z,28.27
2023-06-09T10:23:39.117Z,28.35
2023-06-09T10:24:39.072Z,27.81
2023-06-09T10:25:39.125Z,27.91
2023-06-09T10:26:39.044Z,28.11
2023-06-09T10:27:39.054Z,28.43
2023-06-09T10:28:39.033Z,28.65
2023-06-09T10:29:39.069Z,28.57
2023-06-09T10:30:40.643Z,28.40
2023-06-09T10:31:39.133Z,28.08
2023-06-09T10:32:39.042Z,28.09
2023-06-09T10:33:39.008Z,28.06
2023-06-09T10:34:38.986Z,27.98
2023-06-09T10:35:39.028Z,28.11
2023-06-09T10:36:41.908Z,28.39
2023-06-09T10:37:38.976Z,28.55
2023-06-09T10:38:38.929Z,28.73
2023-06-09T10:39:38.950Z,28.77
2023-06-09T10:40:38.920Z,28.55
2023-06-09T10:41:38.949Z,27.99
2023-06-09T10:42:38.893Z,27.91
2023-06-09T10:43:38.924Z,28.21
2023-06-09T10:44:38.878Z,28.28
2023-06-09T10:45:38.879Z,28.46
2023-06-09T10:46:38.963Z,28.73
2023-06-09T10:47:41.081Z,28.85
2023-06-09T10:48:38.858Z,29.03
2023-06-09T10:49:38.868Z,29.05
2023-06-09T10:50:38.805Z,28.98
2023-06-09T10:51:38.825Z,28.89
2023-06-09T10:52:38.838Z,28.89
2023-06-09T10:53:38.807Z,28.76
2023-06-09T10:54:38.772Z,28.58
2023-06-09T10:55:38.786Z,28.69
2023-06-09T10:56:38.763Z,28.77
2023-06-09T10:57:38.780Z,28.82
2023-06-09T10:58:38.755Z,28.72
2023-06-09T10:59:38.772Z,28.57
2023-06-09T11:00:38.708Z,28.45
2023-06-09T11:01:38.782Z,28.52
2023-06-09T11:02:38.776Z,28.32
2023-06-09T11:03:38.778Z,28.27
2023-06-09T11:04:38.698Z,28.46
2023-06-09T11:05:38.710Z,28.85
2023-06-09T11:06:38.658Z,29.20
2023-06-09T11:07:38.661Z,29.32
2023-06-09T11:08:38.649Z,29.49
2023-06-09T11:09:38.638Z,29.44
2023-06-09T11:10:38.763Z,29.29
2023-06-09T11:11:38.635Z,29.20
2023-06-09T11:12:38.590Z,29.30
2023-06-09T11:13:38.613Z,29.27
2023-06-09T11:14:38.578Z,29.25
2023-06-09T11:15:38.624Z,28.88
2023-06-09T11:16:38.551Z,28.64
2023-06-09T11:17:38.683Z,28.82
2023-06-09T11:18:38.647Z,28.98
2023-06-09T11:19:38.539Z,29.07
2023-06-09T11:20:38.535Z,28.94
2023-06-09T11:21:38.538Z,28.24
2023-06-09T11:22:38.540Z,28.11
2023-06-09T11:23:38.518Z,28.24
2023-06-09T11:24:38.475Z,28.32
2023-06-09T11:25:40.111Z,28.46
2023-06-09T11:26:38.444Z,28.55
2023-06-09T11:27:38.456Z,28.57
2023-06-09T11:28:38.413Z,28.58
2023-06-09T11:29:38.424Z,28.85
2023-06-09T11:30:38.440Z,28.94
2023-06-09T11:31:40.383Z,28.79
2023-06-09T11:32:38.397Z,29.02
2023-06-09T11:33:38.417Z,29.18
2023-06-09T11:34:38.356Z,29.18
2023-06-09T11:35:38.359Z,29.26
2023-06-09T11:36:38.364Z,28.89
2023-06-09T11:37:38.352Z,28.95
2023-06-09T11:38:38.315Z,28.61
2023-06-09T11:39:38.335Z,28.39
2023-06-09T11:40:38.287Z,28.09
2023-06-09T11:41:38.306Z,28.05
2023-06-09T11:42:38.289Z,28.17
2023-06-09T11:43:38.287Z,28.35
2023-06-09T11:44:38.232Z,28.65
2023-06-09T11:45:38.403Z,28.80
2023-06-09T11:46:38.222Z,29.00
2023-06-09T11:47:38.256Z,29.12
2023-06-09T11:48:38.209Z,29.17
2023-06-09T11:49:38.219Z,28.98
2023-06-09T11:50:38.260Z,28.87
2023-06-09T11:51:38.186Z,28.88
2023-06-09T11:52:38.227Z,28.91
2023-06-09T11:53:38.212Z,28.74
2023-06-09T11:54:38.127Z,28.70
2023-06-09T11:55:38.156Z,28.79
2023-06-09T11:56:38.131Z,29.02
2023-06-09T11:57:38.131Z,29.18
2023-06-09T11:58:38.135Z,29.33
2023-06-09T11:59:45.325Z,29.30
2023-06-09T12:00:38.085Z,29.07
2023-06-09T12:01:38.097Z,29.03
2023-06-09T12:02:38.194Z,29.03
2023-06-09T12:03:38.106Z,28.85
2023-06-09T12:04:38.061Z,28.77
2023-06-09T12:05:38.074Z,29.12
2023-06-09T12:06:38.024Z,29.45
2023-06-09T12:07:38.022Z,29.63
2023-06-09T12:08:37.982Z,29.49
2023-06-09T12:09:38.021Z,29.39
2023-06-09T12:10:37.988Z,29.64
2023-06-09T12:11:37.997Z,29.58
2023-06-09T12:12:37.932Z,29.85
2023-06-09T12:13:37.962Z,30.06
2023-06-09T12:14:37.917Z,30.00
2023-06-09T12:15:37.964Z,30.01
2023-06-09T12:16:37.914Z,30.08
2023-06-09T12:17:38.142Z,30.15
2023-06-09T12:18:37.875Z,30.26
2023-06-09T12:19:37.882Z,30.28
2023-06-09T12:20:37.978Z,30.25
2023-06-09T12:21:37.873Z,30.51
2023-06-09T12:22:37.829Z,30.75
2023-06-09T12:23:37.883Z,30.78
2023-06-09T12:24:37.820Z,30.36
2023-06-09T12:25:37.847Z,30.36
2023-06-09T12:26:37.812Z,29.64
2023-06-09T12:27:37.801Z,29.21
2023-06-09T12:28:37.792Z,28.74
2023-06-09T12:29:37.799Z,28.55
2023-06-09T12:30:37.771Z,28.52
2023-06-09T12:31:37.796Z,28.64
2023-06-09T12:32:37.775Z,28.69
2023-06-09T12:33:38.145Z,28.77
2023-06-09T12:34:37.721Z,28.67
2023-06-09T12:35:37.739Z,28.58
2023-06-09T12:36:37.718Z,28.52
2023-06-09T12:37:37.713Z,28.32
2023-06-09T12:38:37.662Z,28.27
2023-06-09T12:39:37.704Z,28.06
2023-06-09T12:40:37.655Z,27.95
2023-06-09T12:41:37.682Z,27.81
2023-06-09T12:42:37.659Z,27.74
2023-06-09T12:43:37.617Z,27.93
2023-06-09T12:44:37.638Z,28.01
2023-06-09T12:45:37.594Z,28.09
2023-06-09T12:46:37.692Z,28.08
2023-06-09T12:47:37.634Z,28.20
2023-06-09T12:48:37.708Z,28.43
2023-06-09T12:49:37.574Z,28.67
2023-06-09T12:50:37.587Z,28.58
2023-06-09T12:51:40.032Z,28.73
2023-06-09T12:52:37.573Z,28.91